sensor_id;sensor_type;location;lat;lon;timestamp;P1;durP1;ratioP1;P2;durP2;ratioP2
31692;SDS011;37436;53.230;6.614;2022-11-20T00:01:09;31.08;;;13.45;;
31692;SDS011;37436;53.230;6.614;2022-11-20T00:03:36;30.60;;;13.20;;
31692;SDS011;37436;53.230;6.614;2022-11-20T00:06:06;34.88;;;12.60;;
31692;SDS011;37436;53.230;6.614;2022-11-20T00:08:32;33.90;;;13.40;;
31692;SDS011;37436;53.230;6.614;2022-11-20T00:11:02;25.95;;;11.07;;
31692;SDS011;37436;53.230;6.614;2022-11-20T00:13:28;24.77;;;10.82;;
31692;SDS011;37436;53.230;6.614;2022-11-20T00:15:58;22.58;;;9.82;;
31692;SDS011;37436;53.230;6.614;2022-11-20T00:18:24;26.42;;;10.55;;
31692;SDS011;37436;53.230;6.614;2022-11-20T00:20:50;22.95;;;10.73;;
31692;SDS011;37436;53.230;6.614;2022-11-20T00:23:16;23.05;;;10.23;;
31692;SDS011;37436;53.230;6.614;2022-11-20T00:25:42;25.55;;;10.32;;
31692;SDS011;37436;53.230;6.614;2022-11-20T00:28:08;25.50;;;10.63;;
31692;SDS011;37436;53.230;6.614;2022-11-20T00:30:35;20.70;;;9.70;;
31692;SDS011;37436;53.230;6.614;2022-11-20T00:33:01;26.48;;;9.82;;
31692;SDS011;37436;53.230;6.614;2022-11-20T00:35:27;20.02;;;7.68;;
31692;SDS011;37436;53.230;6.614;2022-11-20T00:37:53;19.38;;;8.27;;
31692;SDS011;37436;53.230;6.614;2022-11-20T00:40:19;22.90;;;10.27;;
31692;SDS011;37436;53.230;6.614;2022-11-20T00:42:45;24.17;;;9.57;;
31692;SDS011;37436;53.230;6.614;2022-11-20T00:45:11;22.02;;;9.55;;
31692;SDS011;37436;53.230;6.614;2022-11-20T00:47:43;25.08;;;10.07;;
31692;SDS011;37436;53.230;6.614;2022-11-20T00:50:09;21.77;;;8.90;;
31692;SDS011;37436;53.230;6.614;2022-11-20T00:52:35;24.90;;;9.30;;
31692;SDS011;37436;53.230;6.614;2022-11-20T00:55:01;27.15;;;10.85;;
31692;SDS011;37436;53.230;6.614;2022-11-20T00:57:27;20.58;;;9.77;;
31692;SDS011;37436;53.230;6.614;2022-11-20T00:59:54;21.13;;;9.02;;
31692;SDS011;37436;53.230;6.614;2022-11-20T01:02:20;21.50;;;8.57;;
31692;SDS011;37436;53.230;6.614;2022-11-20T01:04:46;16.35;;;8.43;;
31692;SDS011;37436;53.230;6.614;2022-11-20T01:07:12;18.00;;;9.05;;
31692;SDS011;37436;53.230;6.614;2022-11-20T01:09:38;18.02;;;8.75;;
31692;SDS011;37436;53.230;6.614;2022-11-20T01:12:04;21.70;;;9.45;;
31692;SDS011;37436;53.230;6.614;2022-11-20T01:14:30;21.63;;;9.20;;
31692;SDS011;37436;53.230;6.614;2022-11-20T01:16:56;20.65;;;9.18;;
31692;SDS011;37436;53.230;6.614;2022-11-20T01:19:22;18.25;;;9.25;;
31692;SDS011;37436;53.230;6.614;2022-11-20T01:21:50;23.42;;;10.02;;
31692;SDS011;37436;53.230;6.614;2022-11-20T01:24:17;22.10;;;9.77;;
31692;SDS011;37436;53.230;6.614;2022-11-20T01:26:44;19.25;;;8.98;;
31692;SDS011;37436;53.230;6.614;2022-11-20T01:29:20;19.20;;;9.00;;
31692;SDS011;37436;53.230;6.614;2022-11-20T01:31:47;19.42;;;8.68;;
31692;SDS011;37436;53.230;6.614;2022-11-20T01:34:14;26.73;;;9.40;;
31692;SDS011;37436;53.230;6.614;2022-11-20T01:36:41;24.00;;;9.45;;
31692;SDS011;37436;53.230;6.614;2022-11-20T01:39:15;26.83;;;10.10;;
31692;SDS011;37436;53.230;6.614;2022-11-20T01:41:49;19.25;;;7.90;;
31692;SDS011;37436;53.230;6.614;2022-11-20T01:47:13;23.15;;;9.07;;
31692;SDS011;37436;53.230;6.614;2022-11-20T01:49:47;19.90;;;9.48;;
31692;SDS011;37436;53.230;6.614;2022-11-20T01:52:18;19.33;;;8.32;;
31692;SDS011;37436;53.230;6.614;2022-11-20T01:54:49;15.95;;;8.00;;
31692;SDS011;37436;53.230;6.614;2022-11-20T01:57:18;21.98;;;9.25;;
31692;SDS011;37436;53.230;6.614;2022-11-20T01:59:47;17.73;;;8.77;;
31692;SDS011;37436;53.230;6.614;2022-11-20T02:02:15;19.33;;;9.20;;
31692;SDS011;37436;53.230;6.614;2022-11-20T02:04:41;17.52;;;7.88;;
31692;SDS011;37436;53.230;6.614;2022-11-20T02:07:07;15.57;;;7.45;;
31692;SDS011;37436;53.230;6.614;2022-11-20T02:09:33;19.23;;;8.82;;
31692;SDS011;37436;53.230;6.614;2022-11-20T02:12:00;21.70;;;9.23;;
31692;SDS011;37436;53.230;6.614;2022-11-20T02:14:26;19.10;;;9.23;;
31692;SDS011;37436;53.230;6.614;2022-11-20T02:16:53;22.92;;;8.95;;
31692;SDS011;37436;53.230;6.614;2022-11-20T02:19:24;18.83;;;7.68;;
31692;SDS011;37436;53.230;6.614;2022-11-20T02:24:32;16.23;;;8.32;;
31692;SDS011;37436;53.230;6.614;2022-11-20T02:27:03;20.85;;;8.60;;
31692;SDS011;37436;53.230;6.614;2022-11-20T02:29:32;21.45;;;9.25;;
31692;SDS011;37436;53.230;6.614;2022-11-20T02:32:00;18.05;;;8.73;;
31692;SDS011;37436;53.230;6.614;2022-11-20T02:34:26;19.33;;;7.88;;
31692;SDS011;37436;53.230;6.614;2022-11-20T02:36:53;16.67;;;8.32;;
31692;SDS011;37436;53.230;6.614;2022-11-20T02:39:20;20.67;;;8.35;;
31692;SDS011;37436;53.230;6.614;2022-11-20T02:41:53;18.30;;;8.55;;
31692;SDS011;37436;53.230;6.614;2022-11-20T02:44:20;17.63;;;8.10;;
31692;SDS011;37436;53.230;6.614;2022-11-20T02:46:46;23.50;;;8.63;;
31692;SDS011;37436;53.230;6.614;2022-11-20T02:49:12;18.55;;;8.52;;
31692;SDS011;37436;53.230;6.614;2022-11-20T02:51:38;18.90;;;8.80;;
31692;SDS011;37436;53.230;6.614;2022-11-20T02:54:04;21.85;;;8.50;;
31692;SDS011;37436;53.230;6.614;2022-11-20T02:56:30;20.00;;;8.05;;
31692;SDS011;37436;53.230;6.614;2022-11-20T02:58:56;19.42;;;7.63;;
31692;SDS011;37436;53.230;6.614;2022-11-20T03:01:22;18.02;;;8.10;;
31692;SDS011;37436;53.230;6.614;2022-11-20T03:03:48;20.75;;;8.07;;
31692;SDS011;37436;53.230;6.614;2022-11-20T03:06:15;15.23;;;7.28;;
31692;SDS011;37436;53.230;6.614;2022-11-20T03:08:41;18.88;;;8.38;;
31692;SDS011;37436;53.230;6.614;2022-11-20T03:11:08;18.45;;;8.20;;
31692;SDS011;37436;53.230;6.614;2022-11-20T03:13:34;16.08;;;7.78;;
31692;SDS011;37436;53.230;6.614;2022-11-20T03:16:05;19.63;;;7.50;;
31692;SDS011;37436;53.230;6.614;2022-11-20T03:18:31;18.42;;;7.68;;
31692;SDS011;37436;53.230;6.614;2022-11-20T03:20:57;17.77;;;7.60;;
31692;SDS011;37436;53.230;6.614;2022-11-20T03:23:24;19.85;;;8.20;;
31692;SDS011;37436;53.230;6.614;2022-11-20T03:25:50;12.52;;;6.22;;
31692;SDS011;37436;53.230;6.614;2022-11-20T03:28:16;14.70;;;6.63;;
31692;SDS011;37436;53.230;6.614;2022-11-20T03:30:42;14.90;;;6.95;;
31692;SDS011;37436;53.230;6.614;2022-11-20T03:33:08;21.08;;;7.85;;
31692;SDS011;37436;53.230;6.614;2022-11-20T03:35:34;16.58;;;7.82;;
31692;SDS011;37436;53.230;6.614;2022-11-20T03:38:00;16.05;;;7.70;;
31692;SDS011;37436;53.230;6.614;2022-11-20T03:40:26;15.15;;;7.15;;
31692;SDS011;37436;53.230;6.614;2022-11-20T03:42:52;11.27;;;6.95;;
31692;SDS011;37436;53.230;6.614;2022-11-20T03:45:18;17.40;;;8.07;;
31692;SDS011;37436;53.230;6.614;2022-11-20T03:47:45;13.25;;;7.65;;
31692;SDS011;37436;53.230;6.614;2022-11-20T03:50:11;13.80;;;6.95;;
31692;SDS011;37436;53.230;6.614;2022-11-20T03:52:39;16.30;;;7.40;;
31692;SDS011;37436;53.230;6.614;2022-11-20T03:55:06;14.23;;;6.85;;
31692;SDS011;37436;53.230;6.614;2022-11-20T03:57:32;15.25;;;6.70;;
31692;SDS011;37436;53.230;6.614;2022-11-20T03:59:58;13.70;;;7.03;;
31692;SDS011;37436;53.230;6.614;2022-11-20T04:02:24;12.00;;;5.88;;
31692;SDS011;37436;53.230;6.614;2022-11-20T04:04:50;15.80;;;7.60;;
31692;SDS011;37436;53.230;6.614;2022-11-20T04:07:16;14.70;;;7.53;;
31692;SDS011;37436;53.230;6.614;2022-11-20T04:09:43;16.02;;;7.35;;
31692;SDS011;37436;53.230;6.614;2022-11-20T04:12:09;15.07;;;6.47;;
31692;SDS011;37436;53.230;6.614;2022-11-20T04:14:35;17.83;;;7.50;;
31692;SDS011;37436;53.230;6.614;2022-11-20T04:17:01;15.85;;;7.28;;
31692;SDS011;37436;53.230;6.614;2022-11-20T04:19:28;15.82;;;7.80;;
31692;SDS011;37436;53.230;6.614;2022-11-20T04:21:54;12.48;;;6.65;;
31692;SDS011;37436;53.230;6.614;2022-11-20T04:24:20;19.02;;;8.23;;
31692;SDS011;37436;53.230;6.614;2022-11-20T04:26:46;16.98;;;7.47;;
31692;SDS011;37436;53.230;6.614;2022-11-20T04:29:12;16.60;;;7.40;;
31692;SDS011;37436;53.230;6.614;2022-11-20T04:31:39;12.98;;;7.00;;
31692;SDS011;37436;53.230;6.614;2022-11-20T04:34:06;15.75;;;7.80;;
31692;SDS011;37436;53.230;6.614;2022-11-20T04:36:33;16.45;;;7.30;;
31692;SDS011;37436;53.230;6.614;2022-11-20T04:39:00;14.30;;;7.35;;
31692;SDS011;37436;53.230;6.614;2022-11-20T04:41:30;18.25;;;7.75;;
31692;SDS011;37436;53.230;6.614;2022-11-20T04:44:09;15.00;;;7.10;;
31692;SDS011;37436;53.230;6.614;2022-11-20T04:46:36;15.40;;;7.68;;
31692;SDS011;37436;53.230;6.614;2022-11-20T04:49:03;14.40;;;7.20;;
31692;SDS011;37436;53.230;6.614;2022-11-20T04:51:29;14.30;;;7.07;;
31692;SDS011;37436;53.230;6.614;2022-11-20T04:53:55;18.52;;;7.50;;
31692;SDS011;37436;53.230;6.614;2022-11-20T04:56:21;16.92;;;8.35;;
31692;SDS011;37436;53.230;6.614;2022-11-20T04:58:47;20.27;;;7.97;;
31692;SDS011;37436;53.230;6.614;2022-11-20T05:01:14;15.18;;;8.65;;
31692;SDS011;37436;53.230;6.614;2022-11-20T05:03:41;18.00;;;7.40;;
31692;SDS011;37436;53.230;6.614;2022-11-20T05:06:08;15.48;;;7.57;;
31692;SDS011;37436;53.230;6.614;2022-11-20T05:08:34;16.08;;;8.05;;
31692;SDS011;37436;53.230;6.614;2022-11-20T05:11:04;17.35;;;8.13;;
31692;SDS011;37436;53.230;6.614;2022-11-20T05:13:30;18.38;;;7.38;;
31692;SDS011;37436;53.230;6.614;2022-11-20T05:16:00;15.00;;;7.30;;
31692;SDS011;37436;53.230;6.614;2022-11-20T05:18:27;19.08;;;7.55;;
31692;SDS011;37436;53.230;6.614;2022-11-20T05:20:56;15.43;;;6.93;;
31692;SDS011;37436;53.230;6.614;2022-11-20T05:23:23;18.13;;;8.05;;
31692;SDS011;37436;53.230;6.614;2022-11-20T05:25:53;17.95;;;7.28;;
31692;SDS011;37436;53.230;6.614;2022-11-20T05:28:19;20.27;;;8.48;;
31692;SDS011;37436;53.230;6.614;2022-11-20T05:30:45;17.25;;;7.75;;
31692;SDS011;37436;53.230;6.614;2022-11-20T05:33:11;15.45;;;7.45;;
31692;SDS011;37436;53.230;6.614;2022-11-20T05:35:37;16.15;;;7.20;;
31692;SDS011;37436;53.230;6.614;2022-11-20T05:38:14;19.05;;;7.68;;
31692;SDS011;37436;53.230;6.614;2022-11-20T05:40:40;19.05;;;7.43;;
31692;SDS011;37436;53.230;6.614;2022-11-20T05:43:19;14.43;;;7.40;;
31692;SDS011;37436;53.230;6.614;2022-11-20T05:45:55;13.10;;;6.15;;
31692;SDS011;37436;53.230;6.614;2022-11-20T05:48:21;16.08;;;6.90;;
31692;SDS011;37436;53.230;6.614;2022-11-20T05:50:47;16.35;;;7.70;;
31692;SDS011;37436;53.230;6.614;2022-11-20T05:53:13;14.25;;;7.30;;
31692;SDS011;37436;53.230;6.614;2022-11-20T05:55:39;14.20;;;6.82;;
31692;SDS011;37436;53.230;6.614;2022-11-20T05:58:05;14.23;;;7.20;;
31692;SDS011;37436;53.230;6.614;2022-11-20T06:00:31;15.48;;;6.90;;
31692;SDS011;37436;53.230;6.614;2022-11-20T06:02:57;19.25;;;6.55;;
31692;SDS011;37436;53.230;6.614;2022-11-20T06:05:23;13.15;;;6.45;;
31692;SDS011;37436;53.230;6.614;2022-11-20T06:07:49;10.55;;;6.40;;
31692;SDS011;37436;53.230;6.614;2022-11-20T06:10:15;17.52;;;7.68;;
31692;SDS011;37436;53.230;6.614;2022-11-20T06:12:41;15.50;;;6.88;;
31692;SDS011;37436;53.230;6.614;2022-11-20T06:15:08;16.25;;;6.78;;
31692;SDS011;37436;53.230;6.614;2022-11-20T06:17:34;14.43;;;6.97;;
31692;SDS011;37436;53.230;6.614;2022-11-20T06:20:00;15.40;;;7.35;;
31692;SDS011;37436;53.230;6.614;2022-11-20T06:22:26;21.40;;;6.90;;
31692;SDS011;37436;53.230;6.614;2022-11-20T06:24:52;12.07;;;5.82;;
31692;SDS011;37436;53.230;6.614;2022-11-20T06:27:18;20.35;;;7.18;;
31692;SDS011;37436;53.230;6.614;2022-11-20T06:29:44;17.27;;;7.25;;
31692;SDS011;37436;53.230;6.614;2022-11-20T06:32:10;15.23;;;7.10;;
31692;SDS011;37436;53.230;6.614;2022-11-20T06:34:36;15.95;;;6.88;;
31692;SDS011;37436;53.230;6.614;2022-11-20T06:37:02;14.63;;;6.75;;
31692;SDS011;37436;53.230;6.614;2022-11-20T06:39:28;14.52;;;6.93;;
31692;SDS011;37436;53.230;6.614;2022-11-20T06:41:54;19.50;;;7.50;;
31692;SDS011;37436;53.230;6.614;2022-11-20T06:44:20;13.93;;;6.75;;
31692;SDS011;37436;53.230;6.614;2022-11-20T06:46:46;14.13;;;7.15;;
31692;SDS011;37436;53.230;6.614;2022-11-20T06:49:12;14.80;;;7.07;;
31692;SDS011;37436;53.230;6.614;2022-11-20T06:51:38;16.00;;;6.72;;
31692;SDS011;37436;53.230;6.614;2022-11-20T06:54:04;15.18;;;7.32;;
31692;SDS011;37436;53.230;6.614;2022-11-20T06:56:30;12.98;;;7.53;;
31692;SDS011;37436;53.230;6.614;2022-11-20T06:58:56;13.57;;;6.82;;
31692;SDS011;37436;53.230;6.614;2022-11-20T07:01:22;18.67;;;6.80;;
31692;SDS011;37436;53.230;6.614;2022-11-20T07:03:49;11.30;;;6.32;;
31692;SDS011;37436;53.230;6.614;2022-11-20T07:06:16;14.60;;;6.80;;
31692;SDS011;37436;53.230;6.614;2022-11-20T07:08:42;14.45;;;7.60;;
31692;SDS011;37436;53.230;6.614;2022-11-20T07:11:08;15.95;;;6.97;;
31692;SDS011;37436;53.230;6.614;2022-11-20T07:13:36;13.18;;;6.35;;
31692;SDS011;37436;53.230;6.614;2022-11-20T07:16:04;15.38;;;7.53;;
31692;SDS011;37436;53.230;6.614;2022-11-20T07:18:31;12.90;;;7.15;;
31692;SDS011;37436;53.230;6.614;2022-11-20T07:21:04;18.00;;;7.65;;
31692;SDS011;37436;53.230;6.614;2022-11-20T07:23:30;19.98;;;7.45;;
31692;SDS011;37436;53.230;6.614;2022-11-20T07:25:56;11.68;;;6.18;;
31692;SDS011;37436;53.230;6.614;2022-11-20T07:28:22;14.15;;;6.32;;
31692;SDS011;37436;53.230;6.614;2022-11-20T07:30:52;15.60;;;6.97;;
31692;SDS011;37436;53.230;6.614;2022-11-20T07:33:18;15.88;;;7.65;;
31692;SDS011;37436;53.230;6.614;2022-11-20T07:35:45;16.05;;;7.55;;
31692;SDS011;37436;53.230;6.614;2022-11-20T07:38:11;16.30;;;7.45;;
31692;SDS011;37436;53.230;6.614;2022-11-20T07:40:37;16.45;;;7.55;;
31692;SDS011;37436;53.230;6.614;2022-11-20T07:43:03;20.58;;;7.78;;
31692;SDS011;37436;53.230;6.614;2022-11-20T07:45:29;19.90;;;8.13;;
31692;SDS011;37436;53.230;6.614;2022-11-20T07:47:55;21.75;;;8.57;;
31692;SDS011;37436;53.230;6.614;2022-11-20T07:50:21;15.98;;;6.93;;
31692;SDS011;37436;53.230;6.614;2022-11-20T07:52:47;12.70;;;6.75;;
31692;SDS011;37436;53.230;6.614;2022-11-20T07:55:13;15.00;;;6.95;;
31692;SDS011;37436;53.230;6.614;2022-11-20T07:57:39;12.85;;;6.28;;
31692;SDS011;37436;53.230;6.614;2022-11-20T08:00:06;16.80;;;7.72;;
31692;SDS011;37436;53.230;6.614;2022-11-20T08:02:41;15.77;;;7.43;;
31692;SDS011;37436;53.230;6.614;2022-11-20T08:05:08;16.30;;;7.78;;
31692;SDS011;37436;53.230;6.614;2022-11-20T08:07:38;16.30;;;7.30;;
31692;SDS011;37436;53.230;6.614;2022-11-20T08:10:05;14.65;;;6.80;;
31692;SDS011;37436;53.230;6.614;2022-11-20T08:12:31;14.73;;;6.80;;
31692;SDS011;37436;53.230;6.614;2022-11-20T08:15:15;17.27;;;6.97;;
31692;SDS011;37436;53.230;6.614;2022-11-20T08:17:41;12.55;;;6.65;;
31692;SDS011;37436;53.230;6.614;2022-11-20T08:20:08;17.92;;;8.13;;
31692;SDS011;37436;53.230;6.614;2022-11-20T08:22:34;14.25;;;7.35;;
31692;SDS011;37436;53.230;6.614;2022-11-20T08:25:00;18.23;;;7.80;;
31692;SDS011;37436;53.230;6.614;2022-11-20T08:27:26;16.80;;;7.05;;
31692;SDS011;37436;53.230;6.614;2022-11-20T08:29:52;14.48;;;6.93;;
31692;SDS011;37436;53.230;6.614;2022-11-20T08:32:18;14.02;;;6.93;;
31692;SDS011;37436;53.230;6.614;2022-11-20T08:34:44;15.18;;;7.35;;
31692;SDS011;37436;53.230;6.614;2022-11-20T08:37:11;17.60;;;7.63;;
31692;SDS011;37436;53.230;6.614;2022-11-20T08:39:37;19.35;;;7.38;;
31692;SDS011;37436;53.230;6.614;2022-11-20T08:42:06;14.93;;;7.03;;
31692;SDS011;37436;53.230;6.614;2022-11-20T08:44:32;14.57;;;7.05;;
31692;SDS011;37436;53.230;6.614;2022-11-20T08:46:58;13.63;;;6.93;;
31692;SDS011;37436;53.230;6.614;2022-11-20T08:49:26;20.80;;;8.00;;
31692;SDS011;37436;53.230;6.614;2022-11-20T08:51:52;12.88;;;6.72;;
31692;SDS011;37436;53.230;6.614;2022-11-20T08:54:20;18.50;;;8.10;;
31692;SDS011;37436;53.230;6.614;2022-11-20T08:56:47;17.35;;;8.43;;
31692;SDS011;37436;53.230;6.614;2022-11-20T08:59:13;14.35;;;7.50;;
31692;SDS011;37436;53.230;6.614;2022-11-20T09:01:40;16.40;;;7.80;;
31692;SDS011;37436;53.230;6.614;2022-11-20T09:04:06;16.08;;;7.47;;
31692;SDS011;37436;53.230;6.614;2022-11-20T09:06:32;17.77;;;8.10;;
31692;SDS011;37436;53.230;6.614;2022-11-20T09:08:58;15.60;;;8.35;;
31692;SDS011;37436;53.230;6.614;2022-11-20T09:11:24;11.50;;;6.53;;
31692;SDS011;37436;53.230;6.614;2022-11-20T09:13:50;14.93;;;7.03;;
31692;SDS011;37436;53.230;6.614;2022-11-20T09:16:16;17.13;;;8.05;;
31692;SDS011;37436;53.230;6.614;2022-11-20T09:18:42;13.82;;;6.53;;
31692;SDS011;37436;53.230;6.614;2022-11-20T09:21:10;13.90;;;7.05;;
31692;SDS011;37436;53.230;6.614;2022-11-20T09:23:36;15.10;;;7.15;;
31692;SDS011;37436;53.230;6.614;2022-11-20T09:26:07;16.13;;;7.57;;
31692;SDS011;37436;53.230;6.614;2022-11-20T09:28:33;16.60;;;7.20;;
31692;SDS011;37436;53.230;6.614;2022-11-20T09:30:59;15.77;;;7.28;;
31692;SDS011;37436;53.230;6.614;2022-11-20T09:33:25;17.13;;;8.40;;
31692;SDS011;37436;53.230;6.614;2022-11-20T09:35:52;12.90;;;6.85;;
31692;SDS011;37436;53.230;6.614;2022-11-20T09:38:18;17.48;;;8.60;;
31692;SDS011;37436;53.230;6.614;2022-11-20T09:40:45;17.48;;;7.85;;
31692;SDS011;37436;53.230;6.614;2022-11-20T09:43:19;14.45;;;7.60;;
31692;SDS011;37436;53.230;6.614;2022-11-20T09:45:54;16.52;;;7.75;;
31692;SDS011;37436;53.230;6.614;2022-11-20T09:56:08;18.15;;;6.90;;
31692;SDS011;37436;53.230;6.614;2022-11-20T10:01:12;15.18;;;7.70;;
31692;SDS011;37436;53.230;6.614;2022-11-20T10:03:41;16.40;;;7.40;;
31692;SDS011;37436;53.230;6.614;2022-11-20T10:06:11;15.00;;;7.15;;
31692;SDS011;37436;53.230;6.614;2022-11-20T10:08:40;15.57;;;7.65;;
31692;SDS011;37436;53.230;6.614;2022-11-20T10:11:23;14.25;;;6.90;;
31692;SDS011;37436;53.230;6.614;2022-11-20T10:18:58;14.75;;;7.43;;
31692;SDS011;37436;53.230;6.614;2022-11-20T10:21:28;15.43;;;7.05;;
31692;SDS011;37436;53.230;6.614;2022-11-20T10:26:59;16.15;;;6.95;;
31692;SDS011;37436;53.230;6.614;2022-11-20T10:29:34;15.25;;;7.35;;
31692;SDS011;37436;53.230;6.614;2022-11-20T10:32:23;14.27;;;6.53;;
31692;SDS011;37436;53.230;6.614;2022-11-20T10:35:00;10.80;;;6.20;;
31692;SDS011;37436;53.230;6.614;2022-11-20T10:37:27;13.10;;;6.05;;
31692;SDS011;37436;53.230;6.614;2022-11-20T10:42:25;13.27;;;6.50;;
31692;SDS011;37436;53.230;6.614;2022-11-20T10:44:52;13.00;;;5.68;;
31692;SDS011;37436;53.230;6.614;2022-11-20T10:47:27;11.10;;;5.97;;
31692;SDS011;37436;53.230;6.614;2022-11-20T10:49:54;12.05;;;5.28;;
31692;SDS011;37436;53.230;6.614;2022-11-20T11:00:18;11.43;;;6.22;;
31692;SDS011;37436;53.230;6.614;2022-11-20T11:02:49;13.20;;;6.35;;
31692;SDS011;37436;53.230;6.614;2022-11-20T11:05:17;12.70;;;6.38;;
31692;SDS011;37436;53.230;6.614;2022-11-20T11:07:55;14.75;;;5.72;;
31692;SDS011;37436;53.230;6.614;2022-11-20T11:10:24;11.52;;;5.95;;
31692;SDS011;37436;53.230;6.614;2022-11-20T11:12:51;11.70;;;6.55;;
31692;SDS011;37436;53.230;6.614;2022-11-20T11:15:37;11.70;;;6.80;;
31692;SDS011;37436;53.230;6.614;2022-11-20T11:18:03;14.27;;;6.88;;
31692;SDS011;37436;53.230;6.614;2022-11-20T11:20:30;11.60;;;6.22;;
31692;SDS011;37436;53.230;6.614;2022-11-20T11:22:57;12.55;;;6.95;;
31692;SDS011;37436;53.230;6.614;2022-11-20T11:27:54;9.82;;;5.03;;
31692;SDS011;37436;53.230;6.614;2022-11-20T11:30:21;13.00;;;6.15;;
31692;SDS011;37436;53.230;6.614;2022-11-20T11:32:47;12.45;;;5.85;;
31692;SDS011;37436;53.230;6.614;2022-11-20T11:35:23;12.02;;;6.15;;
31692;SDS011;37436;53.230;6.614;2022-11-20T11:37:50;14.00;;;6.50;;
31692;SDS011;37436;53.230;6.614;2022-11-20T11:40:19;14.30;;;5.88;;
31692;SDS011;37436;53.230;6.614;2022-11-20T11:42:53;13.93;;;7.10;;
31692;SDS011;37436;53.230;6.614;2022-11-20T11:45:33;15.05;;;5.95;;
31692;SDS011;37436;53.230;6.614;2022-11-20T11:48:00;13.23;;;6.80;;
31692;SDS011;37436;53.230;6.614;2022-11-20T11:50:27;12.27;;;6.35;;
31692;SDS011;37436;53.230;6.614;2022-11-20T11:55:35;14.73;;;6.68;;
31692;SDS011;37436;53.230;6.614;2022-11-20T11:58:06;17.83;;;6.22;;
31692;SDS011;37436;53.230;6.614;2022-11-20T12:00:32;11.95;;;5.60;;
31692;SDS011;37436;53.230;6.614;2022-11-20T12:05:30;10.80;;;5.70;;
31692;SDS011;37436;53.230;6.614;2022-11-20T12:10:48;10.68;;;6.00;;
31692;SDS011;37436;53.230;6.614;2022-11-20T12:15:48;11.70;;;6.13;;
31692;SDS011;37436;53.230;6.614;2022-11-20T12:18:15;13.77;;;6.00;;
31692;SDS011;37436;53.230;6.614;2022-11-20T12:20:45;17.00;;;6.43;;
31692;SDS011;37436;53.230;6.614;2022-11-20T12:23:17;12.48;;;7.03;;
31692;SDS011;37436;53.230;6.614;2022-11-20T12:25:47;13.10;;;6.80;;
31692;SDS011;37436;53.230;6.614;2022-11-20T12:28:31;11.65;;;6.47;;
31692;SDS011;37436;53.230;6.614;2022-11-20T12:33:38;12.52;;;6.93;;
31692;SDS011;37436;53.230;6.614;2022-11-20T12:39:11;11.50;;;4.93;;
31692;SDS011;37436;53.230;6.614;2022-11-20T12:44:53;9.90;;;5.05;;
31692;SDS011;37436;53.230;6.614;2022-11-20T12:55:28;8.43;;;4.20;;
31692;SDS011;37436;53.230;6.614;2022-11-20T12:58:00;6.45;;;3.78;;
31692;SDS011;37436;53.230;6.614;2022-11-20T13:00:28;7.88;;;3.88;;
31692;SDS011;37436;53.230;6.614;2022-11-20T13:06:18;8.73;;;4.35;;
31692;SDS011;37436;53.230;6.614;2022-11-20T13:08:27;9.00;;;4.18;;
31692;SDS011;37436;53.230;6.614;2022-11-20T13:10:58;9.18;;;4.20;;
31692;SDS011;37436;53.230;6.614;2022-11-20T13:13:33;9.18;;;4.47;;
31692;SDS011;37436;53.230;6.614;2022-11-20T13:18:39;7.45;;;4.25;;
31692;SDS011;37436;53.230;6.614;2022-11-20T13:21:14;7.22;;;4.63;;
31692;SDS011;37436;53.230;6.614;2022-11-20T13:23:41;8.25;;;4.10;;
31692;SDS011;37436;53.230;6.614;2022-11-20T13:26:17;8.75;;;4.38;;
31692;SDS011;37436;53.230;6.614;2022-11-20T13:28:45;9.63;;;4.65;;
31692;SDS011;37436;53.230;6.614;2022-11-20T13:33:56;8.45;;;4.28;;
31692;SDS011;37436;53.230;6.614;2022-11-20T13:36:26;7.60;;;4.40;;
31692;SDS011;37436;53.230;6.614;2022-11-20T13:38:53;7.15;;;4.20;;
31692;SDS011;37436;53.230;6.614;2022-11-20T13:41:30;6.72;;;3.65;;
31692;SDS011;37436;53.230;6.614;2022-11-20T13:44:12;7.30;;;3.72;;
31692;SDS011;37436;53.230;6.614;2022-11-20T13:46:43;7.00;;;3.90;;
31692;SDS011;37436;53.230;6.614;2022-11-20T13:49:23;9.65;;;4.30;;
31692;SDS011;37436;53.230;6.614;2022-11-20T13:51:50;7.53;;;3.88;;
31692;SDS011;37436;53.230;6.614;2022-11-20T13:59:30;7.90;;;4.38;;
31692;SDS011;37436;53.230;6.614;2022-11-20T14:02:01;7.68;;;4.75;;
31692;SDS011;37436;53.230;6.614;2022-11-20T14:04:33;8.05;;;5.05;;
31692;SDS011;37436;53.230;6.614;2022-11-20T14:07:01;7.43;;;4.72;;
31692;SDS011;37436;53.230;6.614;2022-11-20T14:09:28;9.35;;;5.30;;
31692;SDS011;37436;53.230;6.614;2022-11-20T14:11:54;11.30;;;5.10;;
31692;SDS011;37436;53.230;6.614;2022-11-20T14:14:30;9.23;;;4.70;;
31692;SDS011;37436;53.230;6.614;2022-11-20T14:19:32;13.20;;;4.63;;
31692;SDS011;37436;53.230;6.614;2022-11-20T14:22:09;10.70;;;5.43;;
31692;SDS011;37436;53.230;6.614;2022-11-20T14:24:35;10.98;;;5.20;;
31692;SDS011;37436;53.230;6.614;2022-11-20T14:27:02;10.70;;;4.82;;
31692;SDS011;37436;53.230;6.614;2022-11-20T14:29:29;9.15;;;5.22;;
31692;SDS011;37436;53.230;6.614;2022-11-20T14:31:55;9.73;;;4.80;;
31692;SDS011;37436;53.230;6.614;2022-11-20T14:34:25;11.02;;;5.90;;
31692;SDS011;37436;53.230;6.614;2022-11-20T14:37:00;10.73;;;4.85;;
31692;SDS011;37436;53.230;6.614;2022-11-20T14:39:34;8.70;;;4.40;;
31692;SDS011;37436;53.230;6.614;2022-11-20T14:42:00;10.05;;;4.60;;
31692;SDS011;37436;53.230;6.614;2022-11-20T14:44:40;9.32;;;4.95;;
31692;SDS011;37436;53.230;6.614;2022-11-20T14:47:08;9.82;;;5.10;;
31692;SDS011;37436;53.230;6.614;2022-11-20T14:49:36;10.20;;;5.53;;
31692;SDS011;37436;53.230;6.614;2022-11-20T14:52:09;10.63;;;5.32;;
31692;SDS011;37436;53.230;6.614;2022-11-20T14:54:52;13.57;;;5.72;;
31692;SDS011;37436;53.230;6.614;2022-11-20T14:59:48;11.95;;;6.40;;
31692;SDS011;37436;53.230;6.614;2022-11-20T15:02:14;11.48;;;5.65;;
31692;SDS011;37436;53.230;6.614;2022-11-20T15:07:22;14.10;;;6.18;;
31692;SDS011;37436;53.230;6.614;2022-11-20T15:09:58;14.25;;;6.32;;
31692;SDS011;37436;53.230;6.614;2022-11-20T15:12:24;10.80;;;5.22;;
31692;SDS011;37436;53.230;6.614;2022-11-20T15:14:50;10.90;;;5.75;;
31692;SDS011;37436;53.230;6.614;2022-11-20T15:17:16;11.02;;;5.63;;
31692;SDS011;37436;53.230;6.614;2022-11-20T15:19:42;13.65;;;5.32;;
31692;SDS011;37436;53.230;6.614;2022-11-20T15:22:12;15.85;;;7.15;;
31692;SDS011;37436;53.230;6.614;2022-11-20T15:24:38;19.30;;;7.28;;
31692;SDS011;37436;53.230;6.614;2022-11-20T15:27:04;11.43;;;5.82;;
31692;SDS011;37436;53.230;6.614;2022-11-20T15:29:30;12.32;;;6.45;;
31692;SDS011;37436;53.230;6.614;2022-11-20T15:31:57;12.75;;;6.18;;
31692;SDS011;37436;53.230;6.614;2022-11-20T15:34:23;15.52;;;6.13;;
31692;SDS011;37436;53.230;6.614;2022-11-20T15:36:49;16.23;;;7.18;;
31692;SDS011;37436;53.230;6.614;2022-11-20T15:39:15;16.75;;;6.95;;
31692;SDS011;37436;53.230;6.614;2022-11-20T15:41:41;14.40;;;7.07;;
31692;SDS011;37436;53.230;6.614;2022-11-20T15:44:07;14.10;;;6.70;;
31692;SDS011;37436;53.230;6.614;2022-11-20T15:46:46;13.75;;;6.60;;
31692;SDS011;37436;53.230;6.614;2022-11-20T15:49:13;25.58;;;7.53;;
31692;SDS011;37436;53.230;6.614;2022-11-20T15:51:40;13.98;;;6.88;;
31692;SDS011;37436;53.230;6.614;2022-11-20T15:54:10;13.77;;;5.82;;
31692;SDS011;37436;53.230;6.614;2022-11-20T15:56:37;16.13;;;7.20;;
31692;SDS011;37436;53.230;6.614;2022-11-20T15:59:03;13.50;;;5.88;;
31692;SDS011;37436;53.230;6.614;2022-11-20T16:01:29;14.40;;;6.72;;
31692;SDS011;37436;53.230;6.614;2022-11-20T16:03:55;15.75;;;7.60;;
31692;SDS011;37436;53.230;6.614;2022-11-20T16:06:21;17.65;;;7.28;;